createdAt,value
2019-04-27T00:01:23.364Z,28.25
2019-04-27T00:04:06.643Z,26.60
2019-04-27T00:06:43.074Z,23.67
2019-04-27T00:09:23.309Z,24.23
2019-04-27T00:12:05.666Z,22.17
2019-04-27T00:14:35.702Z,23.10
2019-04-27T00:17:44.920Z,23.77
2019-04-27T00:20:21.614Z,21.62
2019-04-27T00:22:57.735Z,20.43
2019-04-27T00:25:27.550Z,19.05
2019-04-27T00:27:57.358Z,18.30
2019-04-27T00:30:27.076Z,17.62
2019-04-27T00:32:56.722Z,17.37
2019-04-27T00:35:33.469Z,15.53
2019-04-27T00:38:28.280Z,16.12
2019-04-27T00:41:03.001Z,14.75
2019-04-27T00:43:32.965Z,14.87
2019-04-27T00:46:04.051Z,14.58
2019-04-27T00:48:33.917Z,11.80
2019-04-27T00:51:04.941Z,12.05
2019-04-27T00:53:34.602Z,9.93
2019-04-27T00:56:17.857Z,9.65
2019-04-27T00:59:03.494Z,8.70
2019-04-27T01:01:37.903Z,8.50
2019-04-27T01:04:13.608Z,8.35
2019-04-27T01:06:43.806Z,7.97
2019-04-27T01:09:14.550Z,7.72
2019-04-27T01:11:44.350Z,7.65
2019-04-27T01:14:15.034Z,7.80
2019-04-27T01:16:44.692Z,7.70
2019-04-27T01:19:14.332Z,7.30
2019-04-27T01:21:44.060Z,7.12
2019-04-27T01:24:13.777Z,6.97
2019-04-27T01:27:02.718Z,7.20
2019-04-27T01:29:33.077Z,6.78
2019-04-27T01:32:03.458Z,7.20
2019-04-27T01:34:33.175Z,6.67
2019-04-27T01:37:02.853Z,7.00
2019-04-27T01:39:32.698Z,7.22
2019-04-27T01:42:02.362Z,7.58
2019-04-27T01:44:32.056Z,6.97
2019-04-27T01:47:01.769Z,7.80
2019-04-27T01:49:31.472Z,7.00
2019-04-27T01:52:01.279Z,9.43
2019-04-27T01:54:30.981Z,9.40
2019-04-27T01:57:00.956Z,8.48
2019-04-27T01:59:30.730Z,8.05
2019-04-27T02:02:10.611Z,8.83
2019-04-27T02:04:59.394Z,8.65
2019-04-27T02:07:30.052Z,8.15
2019-04-27T02:10:00.010Z,8.78
2019-04-27T02:12:31.507Z,9.48
2019-04-27T02:15:01.282Z,9.40
2019-04-27T02:17:31.155Z,9.45
2019-04-27T02:20:00.911Z,10.03
2019-04-27T02:22:31.154Z,9.68
2019-04-27T02:25:00.960Z,10.53
2019-04-27T02:27:32.498Z,9.35
2019-04-27T02:30:20.753Z,10.40
2019-04-27T02:33:12.361Z,10.63
2019-04-27T02:35:41.992Z,10.48
2019-04-27T02:38:12.259Z,11.13
2019-04-27T02:41:10.599Z,11.70
2019-04-27T02:44:01.749Z,10.95
2019-04-27T02:46:31.779Z,10.68
2019-04-27T02:49:06.421Z,11.35
2019-04-27T02:51:42.509Z,10.58
2019-04-27T02:54:12.703Z,11.33
2019-04-27T02:56:42.619Z,11.18
2019-04-27T02:59:12.342Z,12.20
2019-04-27T03:01:53.918Z,13.08
2019-04-27T03:04:23.644Z,12.85
2019-04-27T03:06:53.371Z,12.43
2019-04-27T03:09:23.039Z,12.35
2019-04-27T03:11:52.775Z,11.83
2019-04-27T03:14:47.144Z,12.28
2019-04-27T03:17:49.436Z,11.35
2019-04-27T03:20:40.289Z,11.25
2019-04-27T03:23:10.802Z,12.07
2019-04-27T03:25:52.686Z,10.78
2019-04-27T03:28:22.498Z,10.90
2019-04-27T03:30:52.827Z,11.12
2019-04-27T03:33:22.933Z,11.70
2019-04-27T03:35:53.225Z,11.90
2019-04-27T03:38:23.588Z,12.60
2019-04-27T03:40:53.436Z,13.48
2019-04-27T03:43:24.832Z,14.68
2019-04-27T03:45:54.864Z,13.80
2019-04-27T03:48:24.537Z,14.10
2019-04-27T03:51:12.552Z,13.35
2019-04-27T03:53:49.581Z,15.13
2019-04-27T03:56:39.374Z,14.68
2019-04-27T03:59:16.058Z,14.68
2019-04-27T04:01:45.818Z,14.75
2019-04-27T04:04:15.587Z,15.70
2019-04-27T04:06:45.302Z,14.93
2019-04-27T04:09:15.098Z,15.80
2019-04-27T04:11:59.158Z,15.40
2019-04-27T04:14:30.201Z,14.03
2019-04-27T04:17:03.227Z,16.42
2019-04-27T04:19:47.821Z,15.40
2019-04-27T04:22:05.981Z,15.80
2019-04-27T04:24:35.629Z,17.62
2019-04-27T04:27:05.415Z,17.60
2019-04-27T04:29:35.151Z,16.80
2019-04-27T04:32:04.955Z,16.10
2019-04-27T04:34:34.816Z,17.75
2019-04-27T04:37:05.030Z,17.15
2019-04-27T04:39:34.777Z,17.10
2019-04-27T04:42:14.994Z,16.60
2019-04-27T04:45:10.716Z,17.82
2019-04-27T04:47:44.862Z,17.45
2019-04-27T04:50:15.493Z,18.10
2019-04-27T04:52:45.464Z,17.75
2019-04-27T04:55:15.235Z,18.55
2019-04-27T04:57:45.012Z,17.70
2019-04-27T05:00:14.994Z,17.40
2019-04-27T05:02:44.693Z,18.65
2019-04-27T05:05:14.604Z,20.37
2019-04-27T05:07:44.334Z,23.12
2019-04-27T05:10:14.097Z,24.67
2019-04-27T05:12:43.764Z,26.12
2019-04-27T05:15:14.446Z,26.48
2019-04-27T05:17:44.091Z,25.85
2019-04-27T05:20:41.919Z,26.68
2019-04-27T05:23:11.597Z,26.77
2019-04-27T05:25:41.288Z,28.57
2019-04-27T05:28:10.980Z,28.62
2019-04-27T05:30:40.674Z,31.10
2019-04-27T05:33:10.402Z,31.37
2019-04-27T05:35:41.054Z,30.02
2019-04-27T05:38:13.388Z,33.00
2019-04-27T05:40:42.371Z,33.13
2019-04-27T05:43:13.812Z,32.33
2019-04-27T05:46:20.556Z,34.50
2019-04-27T05:48:50.238Z,35.33
2019-04-27T05:51:20.048Z,35.83
2019-04-27T05:53:49.815Z,38.70
2019-04-27T05:56:21.527Z,36.05
2019-04-27T05:58:51.343Z,37.53
2019-04-27T06:01:21.138Z,38.30
2019-04-27T06:03:50.809Z,37.42
2019-04-27T06:06:20.589Z,36.03
2019-04-27T06:08:50.302Z,34.03
2019-04-27T06:11:20.014Z,35.80
2019-04-27T06:13:49.775Z,34.18
2019-04-27T06:16:19.594Z,33.42
2019-04-27T06:18:49.447Z,33.18
2019-04-27T06:21:19.668Z,33.80
2019-04-27T06:23:49.461Z,34.20
2019-04-27T06:26:20.156Z,31.80
2019-04-27T06:28:51.700Z,29.15
2019-04-27T06:31:22.378Z,29.48
2019-04-27T06:33:52.138Z,25.72
2019-04-27T06:36:21.818Z,24.52
2019-04-27T06:38:51.486Z,26.37
2019-04-27T06:41:21.226Z,27.13
2019-04-27T06:43:50.922Z,24.85
2019-04-27T06:46:20.662Z,23.85
2019-04-27T06:48:50.325Z,24.00
2019-04-27T06:51:20.079Z,23.27
2019-04-27T06:53:50.004Z,20.40
2019-04-27T06:56:19.821Z,19.00
2019-04-27T06:58:50.497Z,18.98
2019-04-27T07:01:20.235Z,17.15
2019-04-27T07:03:49.934Z,16.80
2019-04-27T07:06:19.895Z,17.15
2019-04-27T07:08:51.050Z,17.15
2019-04-27T07:11:20.757Z,18.90
2019-04-27T07:13:50.847Z,17.15
2019-04-27T07:16:20.736Z,16.85
2019-04-27T07:18:50.526Z,15.53
2019-04-27T07:21:24.734Z,15.00
2019-04-27T07:23:59.484Z,14.07
2019-04-27T07:26:30.370Z,13.22
2019-04-27T07:29:00.333Z,14.13
2019-04-27T07:31:31.835Z,12.90
2019-04-27T07:34:01.516Z,10.93
2019-04-27T07:36:31.517Z,11.70
2019-04-27T07:39:01.220Z,7.90
2019-04-27T07:41:32.818Z,6.22
2019-04-27T07:44:08.417Z,7.03
2019-04-27T07:46:39.266Z,6.33
2019-04-27T07:49:09.377Z,4.20
2019-04-27T07:51:39.371Z,5.67
2019-04-27T07:54:09.189Z,6.55
2019-04-27T07:56:39.078Z,8.50
2019-04-27T07:59:09.196Z,6.87
2019-04-27T08:01:39.391Z,7.60
2019-04-27T08:04:09.295Z,7.30
2019-04-27T08:06:39.149Z,7.58
2019-04-27T08:09:09.480Z,5.85
2019-04-27T08:11:39.441Z,5.42
2019-04-27T08:14:09.161Z,6.00
2019-04-27T08:16:38.990Z,5.53
2019-04-27T08:19:09.928Z,3.62
2019-04-27T08:21:44.445Z,3.95
2019-04-27T08:24:11.365Z,8.28
2019-04-27T08:26:49.857Z,9.38
2019-04-27T08:29:37.339Z,8.93
2019-04-27T08:32:11.859Z,9.38
2019-04-27T08:34:41.812Z,10.88
2019-04-27T08:37:11.771Z,11.12
2019-04-27T08:39:41.927Z,12.15
2019-04-27T08:42:11.743Z,12.98
2019-04-27T08:44:41.436Z,12.50
2019-04-27T08:47:11.350Z,12.37
2019-04-27T08:49:41.015Z,12.95
2019-04-27T08:52:10.748Z,14.30
2019-04-27T08:54:40.442Z,14.73
2019-04-27T08:57:10.166Z,15.58
2019-04-27T08:59:39.936Z,17.27
2019-04-27T09:02:10.835Z,16.40
2019-04-27T09:04:40.540Z,16.15
2019-04-27T09:07:29.460Z,15.75
2019-04-27T09:10:05.297Z,17.40
2019-04-27T09:12:53.670Z,17.15
2019-04-27T09:15:31.661Z,17.95
2019-04-27T09:18:01.482Z,17.52
2019-04-27T09:20:40.538Z,17.82
2019-04-27T09:23:10.387Z,19.02
2019-04-27T09:25:40.232Z,18.07
2019-04-27T09:28:10.962Z,17.92
2019-04-27T09:30:41.132Z,19.45
2019-04-27T09:33:10.811Z,18.62
2019-04-27T09:35:40.544Z,20.25
2019-04-27T09:38:10.244Z,20.77
2019-04-27T09:40:40.038Z,20.70
2019-04-27T09:43:09.747Z,20.68
2019-04-27T09:45:39.485Z,20.20
2019-04-27T09:48:09.168Z,20.97
2019-04-27T09:50:38.889Z,20.48
2019-04-27T09:53:08.885Z,21.35
2019-04-27T09:55:38.618Z,20.62
2019-04-27T09:58:08.400Z,21.95
2019-04-27T10:00:38.037Z,21.02
2019-04-27T10:03:07.775Z,22.42
2019-04-27T10:05:37.557Z,21.68
2019-04-27T10:08:07.837Z,22.07
2019-04-27T10:10:37.521Z,22.90
2019-04-27T10:13:07.271Z,22.02
2019-04-27T10:15:37.059Z,21.65
2019-04-27T10:18:07.141Z,22.30
2019-04-27T10:20:40.531Z,21.48
2019-04-27T10:23:08.625Z,22.15
2019-04-27T10:25:38.340Z,22.27
2019-04-27T10:28:08.238Z,15.08
2019-04-27T10:30:38.622Z,13.43
2019-04-27T10:33:08.372Z,13.03
2019-04-27T10:35:38.076Z,14.55
2019-04-27T10:38:07.910Z,14.23
2019-04-27T10:40:37.606Z,15.00
2019-04-27T10:43:07.401Z,14.83
2019-04-27T10:45:37.878Z,14.75
2019-04-27T10:48:07.805Z,15.40
2019-04-27T10:50:37.759Z,15.43
2019-04-27T10:53:08.402Z,17.45
2019-04-27T10:55:38.151Z,14.10
2019-04-27T10:58:08.557Z,13.18
2019-04-27T11:00:43.587Z,12.75
2019-04-27T11:03:16.602Z,13.28
2019-04-27T11:06:05.921Z,11.90
2019-04-27T11:08:35.743Z,11.33
2019-04-27T11:11:05.469Z,10.90
2019-04-27T11:13:36.217Z,10.70
2019-04-27T11:16:06.593Z,10.70
2019-04-27T11:18:37.255Z,9.05
2019-04-27T11:21:07.199Z,9.95
2019-04-27T11:23:36.897Z,11.73
2019-04-27T11:26:07.645Z,10.72
2019-04-27T11:28:37.436Z,10.60
2019-04-27T11:31:07.862Z,10.58
2019-04-27T11:33:37.574Z,9.63
2019-04-27T11:36:25.584Z,10.88
2019-04-27T11:38:56.586Z,10.13
2019-04-27T11:41:26.406Z,10.60
2019-04-27T11:43:56.592Z,9.68
2019-04-27T11:46:26.751Z,9.83
2019-04-27T11:48:58.349Z,9.23
2019-04-27T11:51:28.313Z,9.95
2019-04-27T11:53:59.346Z,9.85
2019-04-27T11:56:29.027Z,11.22
2019-04-27T11:58:59.824Z,10.63
2019-04-27T12:01:29.576Z,10.03
2019-04-27T12:03:59.304Z,12.13
2019-04-27T12:06:29.015Z,10.72
2019-04-27T12:08:58.789Z,10.78
2019-04-27T12:11:28.500Z,11.90
2019-04-27T12:13:58.389Z,11.45
2019-04-27T12:16:28.143Z,10.63
2019-04-27T12:18:57.922Z,11.68
2019-04-27T12:21:27.642Z,11.88
2019-04-27T12:23:57.486Z,11.55
2019-04-27T12:26:32.734Z,12.07
2019-04-27T12:29:03.763Z,11.53
2019-04-27T12:31:39.060Z,12.20
2019-04-27T12:34:10.243Z,15.25
2019-04-27T12:36:39.954Z,14.70
2019-04-27T12:39:12.118Z,15.48
2019-04-27T12:41:42.382Z,13.48
2019-04-27T12:44:13.360Z,13.70
2019-04-27T12:46:43.158Z,13.95
2019-04-27T12:49:12.922Z,12.75
2019-04-27T12:51:45.610Z,13.00
2019-04-27T12:54:33.336Z,12.88
2019-04-27T12:57:21.066Z,13.32
2019-04-27T12:59:59.372Z,12.60
2019-04-27T13:02:31.508Z,16.15
2019-04-27T13:05:01.361Z,16.23
2019-04-27T13:07:31.113Z,15.72
2019-04-27T13:10:01.215Z,15.30
2019-04-27T13:12:31.008Z,14.03
2019-04-27T13:15:00.978Z,15.08
2019-04-27T13:17:30.883Z,14.85
2019-04-27T13:20:00.608Z,14.78
2019-04-27T13:22:31.548Z,13.80
2019-04-27T13:25:01.222Z,16.93
2019-04-27T13:27:32.071Z,17.12
2019-04-27T13:30:04.694Z,18.52
2019-04-27T13:32:33.437Z,17.85
2019-04-27T13:35:03.233Z,16.45
2019-04-27T13:37:36.963Z,16.25
2019-04-27T13:40:09.707Z,16.37
2019-04-27T13:42:48.072Z,17.60
2019-04-27T13:45:26.716Z,17.70
2019-04-27T13:48:27.939Z,19.57
2019-04-27T13:51:00.070Z,18.65
2019-04-27T13:53:29.816Z,19.23
2019-04-27T13:56:02.145Z,18.25
2019-04-27T13:58:32.061Z,18.60
2019-04-27T14:01:01.795Z,19.48
2019-04-27T14:03:33.679Z,18.15
2019-04-27T14:06:03.648Z,17.32
2019-04-27T14:08:33.613Z,15.55
2019-04-27T14:11:03.465Z,16.55
2019-04-27T14:13:33.222Z,17.17
2019-04-27T14:16:02.947Z,16.70
2019-04-27T14:18:32.813Z,15.65
2019-04-27T14:21:02.586Z,14.70
2019-04-27T14:23:33.299Z,16.75
2019-04-27T14:26:03.289Z,17.52
2019-04-27T14:28:33.072Z,16.15
2019-04-27T14:31:03.058Z,16.90
2019-04-27T14:33:32.790Z,16.77
2019-04-27T14:36:02.588Z,16.02
2019-04-27T14:38:32.402Z,16.75
2019-04-27T14:41:02.145Z,17.27
2019-04-27T14:43:32.018Z,16.95
2019-04-27T14:46:01.671Z,16.05
2019-04-27T14:48:31.730Z,17.98
2019-04-27T14:51:01.583Z,17.90
2019-04-27T14:53:31.502Z,15.65
2019-04-27T14:56:01.312Z,19.75
2019-04-27T14:58:31.125Z,17.42
2019-04-27T15:01:01.095Z,15.13
2019-04-27T15:03:31.203Z,14.43
2019-04-27T15:06:02.001Z,13.40
2019-04-27T15:08:34.028Z,12.25
2019-04-27T15:11:04.186Z,10.55
2019-04-27T15:13:37.841Z,11.10
2019-04-27T15:16:08.033Z,11.33
2019-04-27T15:18:43.773Z,12.03
2019-04-27T15:21:13.642Z,13.45
2019-04-27T15:23:43.514Z,13.93
2019-04-27T15:26:15.419Z,14.75
2019-04-27T15:28:49.542Z,16.62
2019-04-27T15:31:27.113Z,15.93
2019-04-27T15:34:04.557Z,15.68
2019-04-27T15:36:42.134Z,15.40
2019-04-27T15:39:22.585Z,13.98
2019-04-27T15:41:54.142Z,13.83
2019-04-27T15:44:23.954Z,13.53
2019-04-27T15:46:53.929Z,14.83
2019-04-27T15:49:23.631Z,14.58
2019-04-27T15:51:54.686Z,14.07
2019-04-27T15:54:29.071Z,14.60
2019-04-27T15:56:58.030Z,14.43
2019-04-27T15:59:30.874Z,13.53
2019-04-27T16:01:59.477Z,13.08
2019-04-27T16:04:29.140Z,12.98
2019-04-27T16:07:00.523Z,11.70
2019-04-27T16:09:30.482Z,11.73
2019-04-27T16:12:09.999Z,11.63
2019-04-27T16:14:31.664Z,11.97
2019-04-27T16:17:02.927Z,12.33
2019-04-27T16:19:33.026Z,13.13
2019-04-27T16:22:04.205Z,14.28
2019-04-27T16:24:35.019Z,13.98
2019-04-27T16:27:05.404Z,13.58
2019-04-27T16:29:35.066Z,12.93
2019-04-27T16:32:09.599Z,13.68
2019-04-27T16:34:37.883Z,12.65
2019-04-27T16:37:09.811Z,13.15
2019-04-27T16:39:45.491Z,13.70
2019-04-27T16:42:14.283Z,11.93
2019-04-27T16:44:44.256Z,12.88
2019-04-27T16:47:18.886Z,13.90
2019-04-27T16:49:48.391Z,13.22
2019-04-27T16:52:19.272Z,12.70
2019-04-27T16:54:57.137Z,10.45
2019-04-27T16:57:22.743Z,7.22
2019-04-27T16:59:57.512Z,5.97
2019-04-27T17:02:25.346Z,4.42
2019-04-27T17:04:55.781Z,4.42
2019-04-27T17:07:30.198Z,4.97
2019-04-27T17:09:59.520Z,7.85
2019-04-27T17:12:33.159Z,9.45
2019-04-27T17:15:18.956Z,9.33
2019-04-27T17:18:13.966Z,9.40
2019-04-27T17:20:59.341Z,10.00
2019-04-27T17:23:31.241Z,10.80
2019-04-27T17:26:04.414Z,11.28
2019-04-27T17:28:42.682Z,11.78
2019-04-27T17:31:19.767Z,13.22
2019-04-27T17:33:50.528Z,12.10
2019-04-27T17:36:20.427Z,11.57
2019-04-27T17:38:51.109Z,12.63
2019-04-27T17:41:21.307Z,13.47
2019-04-27T17:43:51.176Z,13.15
2019-04-27T17:46:22.078Z,13.43
2019-04-27T17:48:52.192Z,13.98
2019-04-27T17:51:22.139Z,14.37
2019-04-27T17:53:52.123Z,14.30
2019-04-27T17:56:33.295Z,14.33
2019-04-27T17:58:54.643Z,15.63
2019-04-27T18:01:29.302Z,15.40
2019-04-27T18:04:00.037Z,15.45
2019-04-27T18:06:29.418Z,15.72
2019-04-27T18:09:00.531Z,15.28
2019-04-27T18:11:32.952Z,14.05
2019-04-27T18:14:02.969Z,14.10
2019-04-27T18:16:34.421Z,14.38
2019-04-27T18:19:25.274Z,14.70
2019-04-27T18:22:00.886Z,14.95
2019-04-27T18:24:49.318Z,15.15
2019-04-27T18:27:26.906Z,13.93
2019-04-27T18:30:10.445Z,14.70
2019-04-27T18:32:40.477Z,13.10
2019-04-27T18:35:11.301Z,14.15
2019-04-27T18:37:42.049Z,13.65
2019-04-27T18:40:12.046Z,13.88
2019-04-27T18:42:42.165Z,13.38
2019-04-27T18:45:11.998Z,12.73
2019-04-27T18:47:43.498Z,14.25
2019-04-27T18:50:28.219Z,11.80
2019-04-27T18:53:03.841Z,12.55
2019-04-27T18:55:33.762Z,12.23
2019-04-27T18:58:03.982Z,12.58
2019-04-27T19:00:33.781Z,10.32
2019-04-27T19:03:03.739Z,11.53
2019-04-27T19:05:40.033Z,10.23
2019-04-27T19:08:06.125Z,10.60
2019-04-27T19:10:35.845Z,10.72
2019-04-27T19:13:06.149Z,10.70
2019-04-27T19:15:36.134Z,10.55
2019-04-27T19:18:06.161Z,9.63
2019-04-27T19:20:35.893Z,9.53
2019-04-27T19:23:05.747Z,9.70
2019-04-27T19:26:03.727Z,9.73
2019-04-27T19:29:08.607Z,9.50
2019-04-27T19:31:42.655Z,9.98
2019-04-27T19:34:12.415Z,10.65
2019-04-27T19:36:42.189Z,10.50
2019-04-27T19:39:14.023Z,9.28
2019-04-27T19:41:56.917Z,9.85
2019-04-27T19:44:18.829Z,9.48
2019-04-27T19:46:49.292Z,10.40
2019-04-27T19:49:20.258Z,9.13
2019-04-27T19:51:49.998Z,9.70
2019-04-27T19:54:19.789Z,8.60
2019-04-27T19:56:50.002Z,9.13
2019-04-27T19:59:24.679Z,9.23
2019-04-27T20:01:58.306Z,8.13
2019-04-27T20:04:37.085Z,8.08
2019-04-27T20:07:10.351Z,8.25
2019-04-27T20:10:03.446Z,8.20
2019-04-27T20:12:33.265Z,7.80
2019-04-27T20:15:03.176Z,7.33
2019-04-27T20:17:34.099Z,7.47
2019-04-27T20:20:05.293Z,8.25
2019-04-27T20:22:34.988Z,7.62
2019-04-27T20:25:05.622Z,8.05
2019-04-27T20:27:46.021Z,7.50
2019-04-27T20:30:08.544Z,7.45
2019-04-27T20:32:38.300Z,7.85
2019-04-27T20:35:08.273Z,8.58
2019-04-27T20:37:38.058Z,8.15
2019-04-27T20:40:09.086Z,7.30
2019-04-27T20:42:38.719Z,8.50
2019-04-27T20:45:09.282Z,8.75
2019-04-27T20:47:39.058Z,8.15
2019-04-27T20:50:09.482Z,8.28
2019-04-27T20:52:58.424Z,7.75
2019-04-27T20:55:28.564Z,8.13
2019-04-27T20:58:02.357Z,7.75
2019-04-27T21:00:31.805Z,8.08
2019-04-27T21:03:11.773Z,8.83
2019-04-27T21:05:51.111Z,9.13
2019-04-27T21:08:21.855Z,8.73
2019-04-27T21:10:51.693Z,9.03
2019-04-27T21:13:21.453Z,8.65
2019-04-27T21:15:51.255Z,7.85
2019-04-27T21:18:21.702Z,9.30
2019-04-27T21:20:51.797Z,8.58
2019-04-27T21:23:21.618Z,10.35
2019-04-27T21:25:53.545Z,10.72
2019-04-27T21:28:22.687Z,9.90
2019-04-27T21:30:52.367Z,9.93
2019-04-27T21:33:22.197Z,9.80
2019-04-27T21:35:51.875Z,9.53
2019-04-27T21:38:21.601Z,9.78
2019-04-27T21:40:52.336Z,8.98
2019-04-27T21:43:22.043Z,10.80
2019-04-27T21:45:51.851Z,10.18
2019-04-27T21:48:21.561Z,9.60
2019-04-27T21:50:51.752Z,10.20
2019-04-27T21:53:31.317Z,10.38
2019-04-27T21:56:02.605Z,9.33
2019-04-27T21:58:33.344Z,9.95
2019-04-27T22:01:24.071Z,10.13
2019-04-27T22:03:53.860Z,9.63
2019-04-27T22:06:23.542Z,8.73
2019-04-27T22:08:53.358Z,8.28
2019-04-27T22:11:23.119Z,8.28
2019-04-27T22:13:52.858Z,8.05
2019-04-27T22:16:22.644Z,7.75
2019-04-27T22:18:52.413Z,7.50
2019-04-27T22:21:22.119Z,8.85
2019-04-27T22:24:11.181Z,7.85
2019-04-27T22:26:41.473Z,8.55
2019-04-27T22:29:12.624Z,8.78
2019-04-27T22:31:42.389Z,8.73
2019-04-27T22:34:12.096Z,9.05
2019-04-27T22:36:42.803Z,10.32
2019-04-27T22:39:26.884Z,9.93
2019-04-27T22:42:16.822Z,8.73
2019-04-27T22:44:51.523Z,9.55
2019-04-27T22:47:22.175Z,9.05
2019-04-27T22:49:51.878Z,10.28
2019-04-27T22:52:21.908Z,10.35
2019-04-27T22:54:51.633Z,12.15
2019-04-27T22:57:27.153Z,11.83
2019-04-27T23:00:18.997Z,11.03
2019-04-27T23:02:53.509Z,10.70
2019-04-27T23:05:23.315Z,10.48
2019-04-27T23:07:53.118Z,10.82
2019-04-27T23:10:25.424Z,11.08
2019-04-27T23:12:54.436Z,10.53
2019-04-27T23:15:26.490Z,9.80
2019-04-27T23:17:57.607Z,9.93
2019-04-27T23:20:27.538Z,8.45
2019-04-27T23:22:57.413Z,9.33
2019-04-27T23:25:27.223Z,8.45
2019-04-27T23:27:56.945Z,8.48
2019-04-27T23:30:37.373Z,8.50
2019-04-27T23:33:07.078Z,8.08
2019-04-27T23:35:36.801Z,8.80
2019-04-27T23:38:16.831Z,9.15
2019-04-27T23:40:38.946Z,7.92
2019-04-27T23:43:08.625Z,7.78
2019-04-27T23:45:38.351Z,8.18
2019-04-27T23:48:08.064Z,7.80
2019-04-27T23:50:39.774Z,8.15
2019-04-27T23:53:18.115Z,8.30
2019-04-27T23:55:47.910Z,8.13
2019-04-27T23:58:17.758Z,8.25
